Time;durP1;ratioP1;P1;durP2;ratioP2;P2;SDS_P1;SDS_P2;PMS_P1;PMS_P2;Temp;Humidity;BMP_temperature;BMP_pressure;BME280_temperature;BME280_humidity;BME280_pressure;Samples;Min_cycle;Max_cycle;Signal;HPM_P1;HPM_P2
2021/09/01 00:00:56;;;;;;;6.25;2.28;;;17.50;70.60;;;;;;5035239;28;20033;-91
2021/09/01 00:03:21;;;;;;;7.32;2.22;;;17.40;70.60;;;;;;5033876;28;20033;-91
2021/09/01 00:05:48;;;;;;;4.80;2.42;;;17.40;70.60;;;;;;5030045;28;20064;-90
2021/09/01 00:08:14;;;;;;;6.13;2.20;;;17.40;70.50;;;;;;5033774;28;20032;-90
2021/09/01 00:10:39;;;;;;;7.10;2.20;;;17.40;70.50;;;;;;5033732;28;20029;-89
2021/09/01 00:13:05;;;;;;;5.43;2.25;;;17.40;70.50;;;;;;5031811;28;20014;-88
2021/09/01 00:15:31;;;;;;;5.88;1.80;;;17.30;70.30;;;;;;5032785;28;20441;-90
2021/09/01 00:17:56;;;;;;;3.80;1.83;;;17.30;70.40;;;;;;5030757;28;20029;-89
2021/09/01 00:20:25;;;;;;;4.90;2.28;;;17.30;70.40;;;;;;5025659;28;20035;-91
2021/09/01 00:22:50;;;;;;;5.72;1.90;;;17.30;70.40;;;;;;5032213;28;20036;-88
2021/09/01 00:25:16;;;;;;;7.25;2.55;;;17.40;70.40;;;;;;5032323;28;20025;-87
2021/09/01 00:27:42;;;;;;;6.18;2.15;;;17.40;70.30;;;;;;5032484;28;20060;-89
2021/09/01 00:30:07;;;;;;;3.47;1.90;;;17.40;70.40;;;;;;5033638;28;20010;-91
2021/09/01 00:32:33;;;;;;;6.60;2.33;;;17.40;70.30;;;;;;5032330;28;20029;-90
2021/09/01 00:34:59;;;;;;;4.75;1.73;;;17.30;70.20;;;;;;5032966;28;20400;-89
2021/09/01 00:37:24;;;;;;;6.45;2.08;;;17.30;70.10;;;;;;5032801;28;20476;-87
2021/09/01 00:39:50;;;;;;;4.10;1.67;;;17.30;70.00;;;;;;5065334;28;20025;-89
2021/09/01 00:42:15;;;;;;;8.02;2.22;;;17.30;70.00;;;;;;5032780;28;20025;-91
2021/09/01 00:44:41;;;;;;;5.75;2.00;;;17.40;70.10;;;;;;5033438;28;20021;-92
2021/09/01 00:47:07;;;;;;;5.72;1.85;;;17.40;70.00;;;;;;5032370;28;20408;-91
2021/09/01 00:49:33;;;;;;;4.78;1.70;;;17.40;70.00;;;;;;5033102;28;20032;-91
2021/09/01 00:52:00;;;;;;;4.75;1.80;;;17.50;70.00;;;;;;5033446;28;20021;-89
2021/09/01 00:54:28;;;;;;;4.40;1.50;;;17.50;69.90;;;;;;5031648;28;20021;-88
2021/09/01 00:56:59;;;;;;;5.93;1.80;;;17.60;69.90;;;;;;5031483;28;20484;-89
2021/09/01 00:59:30;;;;;;;3.92;1.73;;;17.60;69.80;;;;;;5032632;28;20075;-88
2021/09/01 01:02:00;;;;;;;4.80;1.70;;;17.60;69.80;;;;;;5032648;28;20033;-89
2021/09/01 01:04:33;;;;;;;4.10;1.60;;;17.60;69.80;;;;;;5032484;28;20026;-88
2021/09/01 01:07:06;;;;;;;5.72;1.90;;;17.60;69.80;;;;;;5032521;28;20037;-94
2021/09/01 01:09:34;;;;;;;4.85;1.90;;;17.60;69.70;;;;;;5033974;28;20022;-90
2021/09/01 01:12:11;;;;;;;4.38;1.60;;;17.60;69.70;;;;;;5034533;28;20052;-90
2021/09/01 01:14:40;;;;;;;4.85;1.80;;;17.60;69.70;;;;;;5035394;28;20104;-90
2021/09/01 01:17:07;;;;;;;3.30;1.42;;;17.60;69.60;;;;;;5034055;28;20052;-90
2021/09/01 01:19:37;;;;;;;4.22;1.80;;;17.70;69.60;;;;;;5033587;28;20036;-91
2021/09/01 01:22:03;;;;;;;4.10;1.80;;;17.60;69.50;;;;;;5037048;28;20546;-90
2021/09/01 01:25:02;;;;;;;4.38;1.80;;;17.60;69.60;;;;;;5035977;28;20025;-91
2021/09/01 01:27:42;;;;;;;3.90;2.03;;;17.60;69.60;;;;;;5032756;28;20040;-90
2021/09/01 01:30:17;;;;;;;5.07;1.90;;;17.50;69.70;;;;;;5032532;28;20025;-91
2021/09/01 01:32:46;;;;;;;4.65;1.80;;;17.50;69.80;;;;;;5033149;28;20025;-90
2021/09/01 01:35:23;;;;;;;4.50;1.85;;;17.50;69.80;;;;;;5034409;28;20032;-92
2021/09/01 01:37:48;;;;;;;4.38;1.80;;;17.50;69.70;;;;;;5044125;28;20018;-90
2021/09/01 01:40:14;;;;;;;3.55;1.73;;;17.60;69.80;;;;;;5047962;28;20021;-91
2021/09/01 01:42:40;;;;;;;4.85;1.95;;;17.50;69.70;;;;;;5045545;28;20119;-91
2021/09/01 01:45:07;;;;;;;4.65;1.70;;;17.50;69.70;;;;;;5036546;28;20531;-90
2021/09/01 01:47:33;;;;;;;5.28;1.95;;;17.50;69.70;;;;;;5032351;28;20041;-90
2021/09/01 01:49:58;;;;;;;4.55;1.40;;;17.50;69.80;;;;;;5031539;28;20021;-88
2021/09/01 01:52:24;;;;;;;4.95;1.80;;;17.50;69.80;;;;;;5033092;28;20484;-91
2021/09/01 01:54:50;;;;;;;3.85;1.60;;;17.50;69.80;;;;;;5036648;28;20025;-91
2021/09/01 01:57:15;;;;;;;4.47;1.58;;;17.50;69.80;;;;;;5033614;28;20026;-91
2021/09/01 01:59:40;;;;;;;5.22;1.80;;;17.50;69.80;;;;;;5034265;28;20029;-90
2021/09/01 02:02:06;;;;;;;5.05;1.77;;;17.50;69.80;;;;;;5035871;28;20056;-91
2021/09/01 02:04:31;;;;;;;4.40;1.50;;;17.60;69.90;;;;;;5035826;28;20030;-91
2021/09/01 02:06:57;;;;;;;4.15;1.67;;;17.60;69.80;;;;;;5034416;28;20042;-91
2021/09/01 02:09:22;;;;;;;2.50;1.42;;;17.60;69.80;;;;;;5036019;28;20038;-91
2021/09/01 02:11:48;;;;;;;4.05;1.60;;;17.60;69.90;;;;;;5033339;28;20024;-89
2021/09/01 02:14:13;;;;;;;4.53;1.90;;;17.60;69.80;;;;;;5031929;28;20469;-90
2021/09/01 02:16:39;;;;;;;5.18;1.75;;;17.60;69.80;;;;;;5034152;28;20017;-90
2021/09/01 02:19:06;;;;;;;4.80;1.75;;;17.60;69.90;;;;;;5036152;28;20064;-90
2021/09/01 02:21:32;;;;;;;4.82;1.80;;;17.60;69.80;;;;;;5042359;28;20029;-92
2021/09/01 02:23:57;;;;;;;2.63;1.40;;;17.70;70.50;;;;;;5038096;28;20022;-93
2021/09/01 02:26:23;;;;;;;6.18;2.00;;;17.70;69.90;;;;;;5038428;28;20488;-92
2021/09/01 02:28:49;;;;;;;2.15;1.33;;;17.60;69.80;;;;;;5041843;28;20485;-93
2021/09/01 02:31:14;;;;;;;4.18;1.80;;;17.60;69.90;;;;;;5043230;28;20029;-92
2021/09/01 02:33:40;;;;;;;3.80;1.80;;;17.50;69.80;;;;;;5034507;28;20021;-92
2021/09/01 02:36:06;;;;;;;3.95;1.60;;;17.50;69.80;;;;;;5043926;28;20022;-91
2021/09/01 02:38:31;;;;;;;2.50;1.60;;;17.60;69.90;;;;;;5039615;28;20025;-92
2021/09/01 02:40:57;;;;;;;4.45;1.80;;;17.50;69.90;;;;;;5045887;28;20025;-91
2021/09/01 02:43:22;;;;;;;4.20;1.50;;;17.50;70.00;;;;;;5042634;28;20029;-90
2021/09/01 02:45:48;;;;;;;4.47;1.58;;;17.50;70.00;;;;;;5042104;28;20026;-92
2021/09/01 02:48:15;;;;;;;3.42;1.60;;;17.50;70.00;;;;;;5048414;28;20388;-92
2021/09/01 02:50:41;;;;;;;3.78;1.70;;;17.60;70.10;;;;;;5044800;28;20025;-92
2021/09/01 02:53:06;;;;;;;4.45;1.75;;;17.50;70.00;;;;;;5045632;28;20021;-92
2021/09/01 02:55:32;;;;;;;5.30;1.65;;;17.50;70.00;;;;;;5042589;28;20023;-92
2021/09/01 02:57:57;;;;;;;5.03;1.80;;;17.60;70.20;;;;;;5043510;28;20028;-93
2021/09/01 03:00:23;;;;;;;6.03;1.92;;;17.60;70.10;;;;;;5043623;28;20044;-92
2021/09/01 03:02:48;;;;;;;6.85;2.10;;;17.60;70.10;;;;;;5043325;28;20099;-92
2021/09/01 03:05:14;;;;;;;4.28;1.58;;;17.60;70.10;;;;;;5043733;28;20025;-92
2021/09/01 03:07:39;;;;;;;5.05;1.92;;;17.60;70.10;;;;;;5043291;28;20055;-92
2021/09/01 03:10:05;;;;;;;4.78;2.00;;;17.60;70.10;;;;;;5040745;28;20030;-91
2021/09/01 03:12:31;;;;;;;5.15;1.85;;;17.60;70.10;;;;;;5041364;28;20017;-92
2021/09/01 03:14:56;;;;;;;4.03;1.65;;;17.60;70.00;;;;;;5073725;28;20033;-93
2021/09/01 03:17:22;;;;;;;4.07;1.80;;;17.50;70.00;;;;;;5048753;28;20021;-92
2021/09/01 03:19:47;;;;;;;4.50;1.92;;;17.50;70.00;;;;;;5046698;28;20116;-93
2021/09/01 03:22:13;;;;;;;4.50;1.92;;;17.40;70.00;;;;;;5037041;28;20025;-90
2021/09/01 03:24:39;;;;;;;6.80;2.15;;;17.40;70.00;;;;;;5036578;28;20026;-90
2021/09/01 03:27:04;;;;;;;3.83;1.83;;;17.40;70.00;;;;;;5035232;28;20052;-91
2021/09/01 03:29:30;;;;;;;4.78;1.98;;;17.40;70.10;;;;;;5036998;28;20380;-91
2021/09/01 03:31:56;;;;;;;3.63;1.80;;;17.40;70.10;;;;;;5035571;28;20503;-90
2021/09/01 03:34:22;;;;;;;4.43;1.80;;;17.40;70.10;;;;;;5034245;28;20503;-87
2021/09/01 03:36:47;;;;;;;4.50;1.90;;;17.40;70.10;;;;;;5034526;28;20037;-89
2021/09/01 03:39:13;;;;;;;4.63;1.83;;;17.40;70.10;;;;;;5033648;28;20035;-89
2021/09/01 03:41:38;;;;;;;5.05;2.00;;;17.40;70.10;;;;;;5032904;28;20048;-90
2021/09/01 03:44:04;;;;;;;4.20;1.70;;;17.40;70.20;;;;;;5033094;28;20120;-88
2021/09/01 03:46:30;;;;;;;4.38;1.75;;;17.40;70.10;;;;;;5021114;28;20108;-87
2021/09/01 03:48:55;;;;;;;4.75;1.90;;;17.40;70.10;;;;;;5031864;28;20021;-87
2021/09/01 03:51:21;;;;;;;3.08;1.70;;;17.40;70.00;;;;;;5031849;28;20036;-88
2021/09/01 03:53:46;;;;;;;5.20;1.83;;;17.40;70.10;;;;;;5042978;28;20026;-87
2021/09/01 03:56:12;;;;;;;2.75;1.60;;;17.50;70.10;;;;;;5030227;28;20514;-86
2021/09/01 03:58:38;;;;;;;3.50;1.88;;;17.40;70.10;;;;;;5032167;28;20071;-86
2021/09/01 04:01:04;;;;;;;4.38;1.90;;;17.50;70.70;;;;;;5032801;28;20080;-87
2021/09/01 04:03:29;;;;;;;3.85;1.80;;;17.50;70.00;;;;;;5032228;28;20488;-87
2021/09/01 04:05:55;;;;;;;5.10;1.85;;;17.50;70.00;;;;;;5032711;28;20045;-88
2021/09/01 04:08:20;;;;;;;5.85;1.73;;;17.50;69.90;;;;;;5033777;28;20053;-90
2021/09/01 04:10:46;;;;;;;5.10;2.00;;;17.40;69.80;;;;;;5032544;28;20048;-88
2021/09/01 04:13:12;;;;;;;3.13;1.60;;;17.40;69.80;;;;;;5033793;28;20494;-90
2021/09/01 04:15:37;;;;;;;4.90;2.13;;;17.40;69.70;;;;;;5033676;28;20028;-90
2021/09/01 04:18:03;;;;;;;5.25;1.90;;;17.40;69.50;;;;;;5032905;28;20027;-89
2021/09/01 04:20:28;;;;;;;4.07;1.73;;;17.30;69.40;;;;;;5032941;28;20095;-89
2021/09/01 04:22:54;;;;;;;3.22;1.42;;;17.30;69.30;;;;;;5033401;28;20029;-91
2021/09/01 04:25:19;;;;;;;4.85;1.90;;;17.30;69.30;;;;;;5034249;28;20026;-91
2021/09/01 04:27:45;;;;;;;4.22;1.77;;;17.20;69.20;;;;;;5032622;28;20030;-90
2021/09/01 04:30:11;;;;;;;3.38;1.50;;;17.20;69.20;;;;;;5032456;28;20029;-89
2021/09/01 04:32:36;;;;;;;3.72;1.48;;;17.30;69.30;;;;;;5033102;28;20068;-89
2021/09/01 04:35:02;;;;;;;3.33;1.52;;;17.30;69.20;;;;;;5032832;28;20032;-87
2021/09/01 04:37:28;;;;;;;2.80;1.50;;;17.30;69.20;;;;;;5031190;28;20034;-86
2021/09/01 04:39:53;;;;;;;3.35;1.50;;;17.30;69.20;;;;;;5033563;28;20582;-90
2021/09/01 04:42:19;;;;;;;3.22;1.35;;;17.30;69.10;;;;;;5032513;28;20500;-88
2021/09/01 04:44:44;;;;;;;5.05;1.60;;;17.30;69.00;;;;;;5032823;28;20033;-89
2021/09/01 04:47:10;;;;;;;2.92;1.45;;;17.30;69.00;;;;;;5032373;28;20035;-88
2021/09/01 04:49:35;;;;;;;3.00;1.35;;;17.30;69.10;;;;;;5031458;28;20022;-89
2021/09/01 04:52:01;;;;;;;4.45;1.73;;;17.30;68.90;;;;;;5032721;28;20036;-91
2021/09/01 04:54:29;;;;;;;5.53;2.17;;;17.30;68.80;;;;;;5032594;28;20025;-94
2021/09/01 04:56:54;;;;;;;2.83;1.50;;;17.30;68.70;;;;;;5033349;28;20017;-92
2021/09/01 04:59:20;;;;;;;4.15;1.52;;;17.30;68.70;;;;;;5032865;28;20078;-93
2021/09/01 05:01:45;;;;;;;3.65;1.50;;;17.30;68.70;;;;;;5032934;28;20388;-92
2021/09/01 05:04:11;;;;;;;2.67;1.55;;;17.30;68.70;;;;;;5033558;28;20029;-90
2021/09/01 05:06:36;;;;;;;3.33;1.58;;;17.30;68.70;;;;;;5032192;28;20033;-90
2021/09/01 05:09:02;;;;;;;3.75;1.77;;;17.30;68.60;;;;;;5028551;28;20029;-90
2021/09/01 05:11:28;;;;;;;3.28;1.38;;;17.30;68.50;;;;;;5026314;28;20053;-93
2021/09/01 05:13:54;;;;;;;5.88;1.70;;;17.30;68.60;;;;;;5033064;28;20033;-92
2021/09/01 05:16:19;;;;;;;4.68;1.75;;;17.30;68.50;;;;;;5026060;28;20026;-91
2021/09/01 05:18:45;;;;;;;2.60;1.52;;;17.30;68.60;;;;;;5033492;28;20037;-92
2021/09/01 05:21:13;;;;;;;2.92;1.58;;;17.40;68.60;;;;;;5032860;28;20013;-92
2021/09/01 05:23:41;;;;;;;4.90;1.83;;;17.40;68.50;;;;;;5031997;28;20370;-92
2021/09/01 05:26:07;;;;;;;4.20;1.65;;;17.40;68.40;;;;;;5033261;28;20026;-91
2021/09/01 05:28:35;;;;;;;3.33;1.50;;;17.40;68.40;;;;;;5037872;28;20073;-91
2021/09/01 05:31:04;;;;;;;3.95;1.42;;;17.40;68.30;;;;;;5022042;28;20036;-91
2021/09/01 05:33:35;;;;;;;3.63;1.40;;;17.40;68.30;;;;;;5033238;28;20030;-92
2021/09/01 05:36:06;;;;;;;4.78;1.70;;;17.40;68.30;;;;;;5022660;28;20034;-93
2021/09/01 05:38:33;;;;;;;3.17;1.58;;;17.50;68.40;;;;;;5012885;28;20030;-92
2021/09/01 05:41:00;;;;;;;4.20;1.70;;;17.50;68.50;;;;;;5012989;28;20026;-92
2021/09/01 05:43:26;;;;;;;3.97;1.60;;;17.50;68.50;;;;;;5023936;28;20018;-91
2021/09/01 05:45:52;;;;;;;3.25;1.70;;;17.40;68.50;;;;;;5040812;28;20022;-91
2021/09/01 05:48:22;;;;;;;2.65;1.52;;;17.50;68.50;;;;;;5035324;28;20380;-91
2021/09/01 05:50:55;;;;;;;2.72;1.60;;;17.50;68.50;;;;;;5036590;28;20079;-91
2021/09/01 05:53:23;;;;;;;3.55;1.60;;;17.50;68.50;;;;;;5041105;28;20024;-92
2021/09/01 05:55:53;;;;;;;5.75;1.88;;;17.50;68.40;;;;;;5064487;28;20076;-92
2021/09/01 05:58:20;;;;;;;5.10;1.50;;;17.40;67.90;;;;;;5029553;28;20018;-92
2021/09/01 06:00:53;;;;;;;3.25;1.40;;;17.40;67.90;;;;;;5032967;28;20053;-94
2021/09/01 06:03:23;;;;;;;3.47;1.48;;;17.40;67.80;;;;;;5045513;28;20030;-93
2021/09/01 06:05:56;;;;;;;3.63;1.60;;;17.40;67.90;;;;;;5013109;28;20477;-93
2021/09/01 06:08:24;;;;;;;4.18;1.70;;;17.40;68.30;;;;;;5024322;28;20112;-92
2021/09/01 06:10:54;;;;;;;3.53;1.52;;;17.40;67.70;;;;;;5023663;28;20029;-92
2021/09/01 06:13:19;;;;;;;3.88;1.40;;;17.50;67.70;;;;;;5025785;28;20499;-82
2021/09/01 06:15:45;;;;;;;3.08;1.40;;;17.50;67.60;;;;;;5028985;28;20026;-80
2021/09/01 06:18:11;;;;;;;4.55;1.50;;;17.50;67.50;;;;;;5026953;28;20029;-81
2021/09/01 06:20:38;;;;;;;2.20;1.30;;;17.50;67.40;;;;;;5033922;28;20029;-80
2021/09/01 06:23:05;;;;;;;2.78;1.30;;;17.50;67.40;;;;;;5033302;28;20056;-81
2021/09/01 06:25:30;;;;;;;3.88;1.50;;;17.50;67.30;;;;;;5033255;28;20029;-81
2021/09/01 06:27:56;;;;;;;3.80;1.45;;;17.60;67.40;;;;;;5034006;28;20033;-81
2021/09/01 06:30:22;;;;;;;3.42;1.70;;;17.60;67.30;;;;;;5034224;28;20021;-80
2021/09/01 06:32:48;;;;;;;3.17;1.50;;;17.60;67.20;;;;;;5034064;28;20029;-80
2021/09/01 06:35:13;;;;;;;3.15;1.40;;;17.60;67.20;;;;;;5034435;28;20025;-81
2021/09/01 06:37:39;;;;;;;3.08;1.55;;;17.70;67.30;;;;;;5033739;28;20469;-81
2021/09/01 06:40:07;;;;;;;3.38;1.40;;;17.70;67.30;;;;;;5034310;28;20574;-81
2021/09/01 06:42:33;;;;;;;3.13;1.50;;;17.70;67.30;;;;;;5033647;28;20026;-77
2021/09/01 06:44:58;;;;;;;4.03;2.00;;;17.70;67.30;;;;;;5033929;28;20377;-77
2021/09/01 06:47:24;;;;;;;4.20;1.90;;;17.70;67.10;;;;;;5032000;28;20033;-77
2021/09/01 06:49:49;;;;;;;3.17;1.42;;;17.70;67.10;;;;;;5033255;28;20029;-76
2021/09/01 06:52:15;;;;;;;3.78;1.80;;;17.80;67.40;;;;;;5032973;28;20075;-81
2021/09/01 06:54:41;;;;;;;6.20;1.60;;;17.80;67.20;;;;;;5029593;28;20037;-79
2021/09/01 06:57:06;;;;;;;3.58;1.60;;;17.80;67.30;;;;;;5031590;28;20029;-81
2021/09/01 06:59:32;;;;;;;4.95;1.50;;;17.80;67.30;;;;;;5032521;28;20064;-82
2021/09/01 07:01:58;;;;;;;3.38;1.40;;;17.80;67.20;;;;;;5033580;28;20083;-84
2021/09/01 07:04:25;;;;;;;3.92;1.48;;;17.80;67.20;;;;;;5033584;28;20109;-84
2021/09/01 07:06:50;;;;;;;2.83;1.40;;;17.80;67.20;;;;;;5032855;28;20081;-82
2021/09/01 07:09:16;;;;;;;3.20;1.65;;;17.80;67.20;;;;;;5064544;28;20037;-85
2021/09/01 07:11:41;;;;;;;4.35;1.65;;;17.80;67.00;;;;;;5036631;28;20036;-83
2021/09/01 07:14:07;;;;;;;4.47;1.80;;;17.80;67.00;;;;;;5040412;28;20079;-81
2021/09/01 07:16:33;;;;;;;3.40;1.60;;;17.80;66.90;;;;;;5032723;28;20033;-82
2021/09/01 07:18:59;;;;;;;5.03;1.58;;;17.90;66.80;;;;;;5031503;28;20033;-81
2021/09/01 07:21:25;;;;;;;4.20;1.80;;;17.80;66.60;;;;;;5033530;28;20032;-80
2021/09/01 07:23:50;;;;;;;4.57;1.85;;;17.80;66.50;;;;;;5034096;28;20547;-78
2021/09/01 07:26:16;;;;;;;37.88;29.63;;;17.80;66.20;;;;;;5030915;28;20175;-79
2021/09/01 07:28:41;;;;;;;13.48;10.82;;;17.90;66.30;;;;;;5061562;28;20380;-78
2021/09/01 07:31:08;;;;;;;8.23;5.40;;;17.90;66.20;;;;;;5063855;28;20512;-78
2021/09/01 07:33:34;;;;;;;5.68;3.58;;;18.10;66.20;;;;;;5032264;28;20025;-78
2021/09/01 07:36:00;;;;;;;3.60;2.33;;;18.10;66.10;;;;;;5038183;28;20396;-78
2021/09/01 07:38:26;;;;;;;4.78;2.08;;;18.10;65.90;;;;;;5032944;28;20029;-79
2021/09/01 07:40:52;;;;;;;3.28;1.70;;;18.20;66.00;;;;;;5032913;28;20662;-76
2021/09/01 07:43:19;;;;;;;3.28;1.50;;;18.30;66.00;;;;;;5032663;28;20028;-77
2021/09/01 07:45:45;;;;;;;3.15;1.52;;;18.40;66.00;;;;;;5032283;28;20086;-75
2021/09/01 07:48:14;;;;;;;3.13;1.38;;;18.40;65.80;;;;;;5032946;28;20025;-76
2021/09/01 07:50:39;;;;;;;2.65;1.40;;;18.50;65.70;;;;;;5032305;28;20052;-76
2021/09/01 07:53:05;;;;;;;2.55;1.52;;;18.60;65.60;;;;;;5032689;28;20084;-76
2021/09/01 07:55:31;;;;;;;2.35;1.40;;;18.60;65.50;;;;;;5031159;28;20113;-77
2021/09/01 07:57:56;;;;;;;3.70;1.67;;;18.60;65.50;;;;;;5032015;28;20484;-78
2021/09/01 08:00:22;;;;;;;4.57;1.60;;;18.60;65.50;;;;;;5032332;28;20029;-77
2021/09/01 08:02:49;;;;;;;3.85;1.70;;;18.60;65.40;;;;;;5031990;28;20026;-77
2021/09/01 08:05:15;;;;;;;4.90;1.52;;;18.60;65.30;;;;;;5029736;28;20026;-77
2021/09/01 08:07:41;;;;;;;3.78;1.48;;;18.70;65.30;;;;;;5031285;28;20095;-77
2021/09/01 08:10:07;;;;;;;3.55;1.48;;;18.70;65.20;;;;;;5030902;28;20455;-76
2021/09/01 08:12:33;;;;;;;3.33;1.60;;;18.80;65.10;;;;;;5031214;28;20022;-77
2021/09/01 08:14:58;;;;;;;2.72;1.58;;;18.80;65.00;;;;;;5031194;28;20516;-77
2021/09/01 08:17:24;;;;;;;2.97;1.60;;;18.80;64.90;;;;;;5031453;28;20029;-78
2021/09/01 08:19:49;;;;;;;2.90;1.42;;;18.90;64.90;;;;;;5031096;28;20128;-76
2021/09/01 08:22:15;;;;;;;2.78;1.50;;;18.90;65.00;;;;;;5031793;28;20384;-77
2021/09/01 08:24:41;;;;;;;5.32;1.98;;;19.00;65.10;;;;;;5031221;28;20029;-77
2021/09/01 08:27:08;;;;;;;2.03;1.30;;;19.00;64.80;;;;;;5030687;28;20045;-78
2021/09/01 08:29:34;;;;;;;3.75;1.50;;;19.00;64.90;;;;;;5031468;28;20022;-78
2021/09/01 08:32:00;;;;;;;3.75;1.77;;;19.00;64.90;;;;;;5030772;28;20099;-78
2021/09/01 08:34:26;;;;;;;3.63;1.63;;;18.90;65.00;;;;;;5030905;28;20116;-77
2021/09/01 08:36:52;;;;;;;2.78;1.50;;;18.90;65.00;;;;;;5030474;28;20061;-77
2021/09/01 08:39:17;;;;;;;4.43;1.45;;;19.00;65.00;;;;;;5031292;28;20024;-78
2021/09/01 08:41:43;;;;;;;4.57;2.03;;;19.00;64.90;;;;;;5031090;28;20049;-76
2021/09/01 08:44:09;;;;;;;4.40;1.95;;;19.00;65.00;;;;;;5031259;28;20029;-77
2021/09/01 08:46:35;;;;;;;3.45;1.55;;;19.00;64.70;;;;;;5029777;28;20079;-79
2021/09/01 08:49:01;;;;;;;4.97;1.90;;;19.00;64.90;;;;;;5031710;28;20029;-79
2021/09/01 08:51:29;;;;;;;3.38;2.05;;;19.00;64.80;;;;;;5027017;28;20029;-80
2021/09/01 08:53:59;;;;;;;4.15;1.85;;;19.00;64.50;;;;;;5026912;28;20095;-80
2021/09/01 08:56:28;;;;;;;3.03;1.40;;;19.00;64.40;;;;;;5021944;28;20036;-81
2021/09/01 08:58:54;;;;;;;5.68;1.90;;;19.10;64.20;;;;;;5024900;28;20034;-78
2021/09/01 09:01:48;;;;;;;2.95;1.38;;;19.00;64.10;;;;;;5029529;28;20661;-78
2021/09/01 09:04:22;;;;;;;1.95;1.10;;;19.20;64.10;;;;;;5041600;28;20113;-79
2021/09/01 09:07:02;;;;;;;3.25;1.40;;;19.30;63.90;;;;;;5024393;28;20049;-79
2021/09/01 09:09:33;;;;;;;3.88;1.92;;;19.40;63.70;;;;;;5029892;28;20025;-81
2021/09/01 09:12:03;;;;;;;4.47;1.70;;;19.50;63.40;;;;;;5027941;28;20147;-79
2021/09/01 09:14:34;;;;;;;4.22;1.90;;;19.50;62.90;;;;;;5029401;28;20045;-80
2021/09/01 09:16:59;;;;;;;3.78;1.30;;;19.60;62.80;;;;;;5028045;28;20029;-81
2021/09/01 09:19:52;;;;;;;2.95;1.30;;;19.70;62.70;;;;;;5031022;28;20029;-81
2021/09/01 09:22:19;;;;;;;;;;;19.80;62.60;;;;;;5030039;28;20036;-81
2021/09/01 09:25:02;;;;;;;3.35;1.40;;;19.90;62.50;;;;;;5060232;28;20023;-83
2021/09/01 09:27:47;;;;;;;3.58;1.70;;;20.00;62.20;;;;;;5029869;28;20040;-81
2021/09/01 09:30:28;;;;;;;2.70;1.20;;;19.90;61.90;;;;;;5031020;28;20017;-80
2021/09/01 09:32:56;;;;;;;3.92;1.70;;;20.00;62.00;;;;;;5030883;28;20032;-80
2021/09/01 09:35:22;;;;;;;2.75;1.50;;;20.00;61.90;;;;;;5029379;28;20026;-82
2021/09/01 09:38:02;;;;;;;3.05;1.25;;;20.00;61.80;;;;;;5028497;28;20025;-81
2021/09/01 09:40:32;;;;;;;4.07;1.58;;;20.10;61.70;;;;;;5023342;28;20040;-82
2021/09/01 09:43:12;;;;;;;3.67;1.58;;;20.10;61.30;;;;;;5029687;28;20025;-80
2021/09/01 09:45:38;;;;;;;3.38;1.40;;;20.20;61.30;;;;;;5029707;28;20552;-78
2021/09/01 09:48:04;;;;;;;4.38;1.60;;;20.20;61.20;;;;;;5029810;28;20041;-79
2021/09/01 09:50:30;;;;;;;2.85;1.63;;;20.20;60.90;;;;;;5030333;28;20091;-79
2021/09/01 09:52:56;;;;;;;3.97;1.58;;;20.20;60.90;;;;;;5028885;28;20476;-80
2021/09/01 09:55:23;;;;;;;4.05;1.60;;;20.20;61.10;;;;;;5027430;28;20018;-80
2021/09/01 09:57:51;;;;;;;4.03;1.60;;;20.20;61.10;;;;;;5029329;28;20014;-80
2021/09/01 10:00:18;;;;;;;3.70;1.50;;;20.20;61.20;;;;;;5030420;28;20385;-81
2021/09/01 10:02:45;;;;;;;1.85;1.30;;;20.40;61.20;;;;;;5030012;28;20029;-78
2021/09/01 10:05:16;;;;;;;4.70;1.40;;;20.50;60.90;;;;;;5027717;28;20017;-81
2021/09/01 10:07:43;;;;;;;2.70;1.10;;;20.60;60.60;;;;;;5026831;28;20030;-80
2021/09/01 10:10:09;;;;;;;4.85;1.55;;;20.70;60.50;;;;;;5029188;28;20380;-80
2021/09/01 10:12:38;;;;;;;3.80;1.52;;;20.70;60.40;;;;;;5028738;28;20029;-80
2021/09/01 10:15:06;;;;;;;3.28;1.88;;;20.70;60.20;;;;;;5027485;28;20499;-80
2021/09/01 10:17:38;;;;;;;4.45;1.63;;;20.70;60.10;;;;;;5027876;28;20029;-80
2021/09/01 10:20:08;;;;;;;3.17;1.52;;;20.70;60.10;;;;;;5029875;28;20026;-79
2021/09/01 10:22:34;;;;;;;4.53;1.70;;;20.70;60.10;;;;;;5029661;28;20029;-80
2021/09/01 10:25:00;;;;;;;2.95;1.50;;;20.70;60.30;;;;;;5029207;28;20040;-80
2021/09/01 10:27:28;;;;;;;3.35;1.50;;;20.60;60.30;;;;;;5029826;28;20030;-78
2021/09/01 10:30:05;;;;;;;3.42;1.60;;;20.60;60.50;;;;;;5029081;28;20021;-80
2021/09/01 10:32:47;;;;;;;6.28;2.30;;;20.50;60.50;;;;;;5027628;28;20369;-78
2021/09/01 10:35:15;;;;;;;3.83;2.03;;;20.40;60.40;;;;;;5033390;28;20657;-78
2021/09/01 10:37:45;;;;;;;4.68;1.92;;;20.30;60.80;;;;;;5028326;28;20025;-80
2021/09/01 10:40:20;;;;;;;4.00;1.73;;;20.30;61.10;;;;;;5027698;28;20029;-79
2021/09/01 10:42:47;;;;;;;3.28;1.73;;;20.30;61.10;;;;;;5030251;28;20025;-79
2021/09/01 10:45:18;;;;;;;5.60;2.00;;;20.30;61.20;;;;;;5030449;28;20450;-80
2021/09/01 10:48:05;;;;;;;3.45;1.60;;;20.20;61.20;;;;;;5023594;28;20084;-78
2021/09/01 10:50:34;;;;;;;5.30;1.60;;;20.30;61.40;;;;;;5029300;28;20096;-77
2021/09/01 10:53:21;;;;;;;3.00;1.45;;;20.30;61.20;;;;;;5029506;28;20040;-78
2021/09/01 10:55:54;;;;;;;3.65;1.40;;;20.40;61.30;;;;;;5028033;28;20037;-78
2021/09/01 10:58:30;;;;;;;3.72;1.50;;;20.50;61.20;;;;;;5032100;28;20048;-77
2021/09/01 11:01:21;;;;;;;4.35;1.60;;;20.50;61.10;;;;;;5033303;28;20045;-78
2021/09/01 11:04:05;;;;;;;4.90;1.70;;;20.50;60.80;;;;;;5030530;28;20038;-78
2021/09/01 11:06:37;;;;;;;2.60;1.45;;;20.50;60.70;;;;;;5032032;28;20044;-79
2021/09/01 11:09:13;;;;;;;3.72;1.50;;;20.60;60.60;;;;;;5032238;28;20033;-79
2021/09/01 11:11:49;;;;;;;6.65;1.80;;;20.70;60.40;;;;;;5032475;28;20026;-78
2021/09/01 11:14:28;;;;;;;3.83;1.63;;;20.60;59.90;;;;;;5033363;28;20033;-79
2021/09/01 11:16:54;;;;;;;2.65;1.33;;;20.60;60.00;;;;;;5032174;28;20041;-80
2021/09/01 11:19:21;;;;;;;2.70;1.45;;;20.80;60.00;;;;;;5033885;28;20053;-79
2021/09/01 11:21:47;;;;;;;2.92;1.55;;;20.90;59.80;;;;;;5031469;28;20026;-83
2021/09/01 11:24:15;;;;;;;3.75;1.42;;;21.00;59.60;;;;;;5025540;28;20124;-82
2021/09/01 11:26:41;;;;;;;3.22;1.40;;;21.10;59.30;;;;;;5032081;28;20036;-81
2021/09/01 11:29:07;;;;;;;2.45;1.40;;;21.20;59.00;;;;;;5032784;28;20501;-80
2021/09/01 11:31:42;;;;;;;1.67;1.17;;;21.20;58.90;;;;;;5032495;28;20014;-80
2021/09/01 11:34:10;;;;;;;4.07;1.67;;;21.30;58.90;;;;;;5032171;28;20047;-79
2021/09/01 11:36:35;;;;;;;2.22;1.40;;;21.30;58.70;;;;;;5031683;28;20017;-80
2021/09/01 11:39:01;;;;;;;2.88;1.50;;;21.20;58.60;;;;;;5032006;28;20028;-80
2021/09/01 11:41:27;;;;;;;2.67;1.27;;;21.20;58.70;;;;;;5035677;28;20392;-78
2021/09/01 11:44:02;;;;;;;4.55;1.65;;;21.20;58.70;;;;;;5029752;28;20036;-81
2021/09/01 11:46:34;;;;;;;1.83;1.20;;;21.20;59.00;;;;;;5030171;28;20502;-79
2021/09/01 11:49:03;;;;;;;;;;;21.20;59.10;;;;;;5031862;28;20491;-78
2021/09/01 11:51:29;;;;;;;5.38;1.90;;;21.10;59.10;;;;;;5024193;28;19909;-80
2021/09/01 11:53:57;;;;;;;3.25;1.50;;;20.90;59.00;;;;;;5031312;28;20503;-77
2021/09/01 11:56:24;;;;;;;3.72;1.80;;;20.80;59.50;;;;;;5031302;28;20014;-77
2021/09/01 11:59:10;;;;;;;2.35;1.50;;;20.80;59.70;;;;;;5031699;28;20814;-79
2021/09/01 12:01:44;;;;;;;3.30;1.40;;;20.80;59.80;;;;;;5031302;28;20083;-79
2021/09/01 12:04:10;;;;;;;4.60;1.55;;;20.80;59.80;;;;;;5030955;28;20449;-78
2021/09/01 12:06:42;;;;;;;4.55;1.50;;;20.90;59.90;;;;;;5030110;28;20025;-78
2021/09/01 12:09:13;;;;;;;4.65;1.60;;;21.00;60.00;;;;;;5032176;28;20036;-78
2021/09/01 12:11:47;;;;;;;3.13;1.60;;;21.10;59.80;;;;;;5031599;28;20096;-81
2021/09/01 12:14:12;;;;;;;3.83;1.58;;;21.10;59.80;;;;;;5063146;28;20112;-78
2021/09/01 12:16:38;;;;;;;3.05;1.40;;;21.00;59.50;;;;;;5029495;28;20108;-82
2021/09/01 12:19:12;;;;;;;4.72;1.75;;;21.00;59.50;;;;;;5029082;28;20068;-81
2021/09/01 12:21:46;;;;;;;3.22;1.67;;;20.90;59.30;;;;;;5030575;28;20125;-81
2021/09/01 12:24:24;;;;;;;3.05;1.70;;;20.80;59.50;;;;;;5031643;28;20028;-79
2021/09/01 12:27:03;;;;;;;4.47;1.98;;;20.80;59.80;;;;;;5030324;28;20048;-77
2021/09/01 12:29:28;;;;;;;3.03;1.40;;;20.70;59.40;;;;;;5031498;28;20025;-78
2021/09/01 12:31:56;;;;;;;3.25;1.48;;;20.70;59.70;;;;;;5021302;28;20030;-79
2021/09/01 12:34:52;;;;;;;6.40;1.73;;;20.90;59.80;;;;;;5029499;28;20025;-78
2021/09/01 12:37:26;;;;;;;4.53;1.60;;;21.00;59.70;;;;;;5028315;28;20487;-79
2021/09/01 12:39:57;;;;;;;2.92;1.40;;;21.00;59.20;;;;;;5027390;28;20036;-79
2021/09/01 12:42:34;;;;;;;2.63;1.40;;;21.20;59.10;;;;;;5030909;28;20044;-80
2021/09/01 12:45:03;;;;;;;2.60;1.50;;;21.20;58.80;;;;;;5027804;28;20032;-79
2021/09/01 12:47:30;;;;;;;2.47;1.48;;;21.40;59.30;;;;;;5029825;28;20113;-79
2021/09/01 12:50:00;;;;;;;4.75;1.90;;;21.40;58.50;;;;;;5032038;28;20365;-80
2021/09/01 12:52:27;;;;;;;2.90;1.50;;;21.50;58.30;;;;;;5029531;28;20492;-77